sensor_id;sensor_type;location;lat;lon;timestamp;pressure;altitude;pressure_sealevel;temperature;humidity
80405;BME280;69733;48.744;9.176;2023-07-31T00:02:19;96873.38;;;13.64;71.44
80405;BME280;69733;48.744;9.176;2023-07-31T00:04:44;96878.38;;;13.61;71.83
80405;BME280;69733;48.744;9.176;2023-07-31T00:07:11;96872.72;;;13.57;72.02
80405;BME280;69733;48.744;9.176;2023-07-31T00:09:36;96880.69;;;13.52;72.09
80405;BME280;69733;48.744;9.176;2023-07-31T00:12:01;96868.03;;;13.48;72.20
80405;BME280;69733;48.744;9.176;2023-07-31T00:14:27;96870.66;;;13.42;72.24
80405;BME280;69733;48.744;9.176;2023-07-31T00:16:52;96865.00;;;13.39;72.21
80405;BME280;69733;48.744;9.176;2023-07-31T00:19:17;96871.63;;;13.36;72.33
80405;BME280;69733;48.744;9.176;2023-07-31T00:21:44;96872.38;;;13.32;72.41
80405;BME280;69733;48.744;9.176;2023-07-31T00:24:09;96870.41;;;13.27;72.64
80405;BME280;69733;48.744;9.176;2023-07-31T00:26:34;96873.56;;;13.24;72.51
80405;BME280;69733;48.744;9.176;2023-07-31T00:29:00;96871.41;;;13.21;72.63
80405;BME280;69733;48.744;9.176;2023-07-31T00:31:25;96869.19;;;13.18;72.87
80405;BME280;69733;48.744;9.176;2023-07-31T00:33:50;96873.16;;;13.16;73.03
80405;BME280;69733;48.744;9.176;2023-07-31T00:36:15;96873.41;;;13.14;72.73
80405;BME280;69733;48.744;9.176;2023-07-31T00:38:42;96873.09;;;13.11;73.00
80405;BME280;69733;48.744;9.176;2023-07-31T00:41:08;96872.75;;;13.07;72.99
80405;BME280;69733;48.744;9.176;2023-07-31T00:43:33;96862.50;;;13.04;73.11
80405;BME280;69733;48.744;9.176;2023-07-31T00:45:58;96865.44;;;13.03;73.12
80405;BME280;69733;48.744;9.176;2023-07-31T00:48:24;96860.59;;;13.00;73.42
80405;BME280;69733;48.744;9.176;2023-07-31T00:50:50;96863.25;;;13.00;73.19
80405;BME280;69733;48.744;9.176;2023-07-31T00:53:15;96864.31;;;12.98;73.45
80405;BME280;69733;48.744;9.176;2023-07-31T00:55:40;96853.84;;;12.97;73.34
80405;BME280;69733;48.744;9.176;2023-07-31T00:58:06;96851.66;;;12.94;73.48
80405;BME280;69733;48.744;9.176;2023-07-31T01:00:31;96855.41;;;12.93;73.26
80405;BME280;69733;48.744;9.176;2023-07-31T01:02:57;96859.34;;;12.90;73.73
80405;BME280;69733;48.744;9.176;2023-07-31T01:05:50;96863.53;;;12.86;73.89
80405;BME280;69733;48.744;9.176;2023-07-31T01:08:44;96859.50;;;12.84;73.56
80405;BME280;69733;48.744;9.176;2023-07-31T01:11:15;96857.31;;;12.81;73.93
80405;BME280;69733;48.744;9.176;2023-07-31T01:13:42;96860.47;;;12.78;73.85
80405;BME280;69733;48.744;9.176;2023-07-31T01:16:08;96857.22;;;12.76;73.73
80405;BME280;69733;48.744;9.176;2023-07-31T01:18:33;96856.66;;;12.74;73.93
80405;BME280;69733;48.744;9.176;2023-07-31T01:21:11;96854.22;;;12.72;73.87
80405;BME280;69733;48.744;9.176;2023-07-31T01:24:22;96851.00;;;12.70;74.14
80405;BME280;69733;48.744;9.176;2023-07-31T01:26:55;96849.63;;;12.68;74.07
80405;BME280;69733;48.744;9.176;2023-07-31T01:29:45;96849.63;;;12.68;74.13
80405;BME280;69733;48.744;9.176;2023-07-31T01:32:12;96841.84;;;12.66;74.44
80405;BME280;69733;48.744;9.176;2023-07-31T01:34:39;96843.47;;;12.67;74.21
80405;BME280;69733;48.744;9.176;2023-07-31T01:37:05;96844.50;;;12.66;74.18
80405;BME280;69733;48.744;9.176;2023-07-31T01:39:30;96836.72;;;12.65;74.18
80405;BME280;69733;48.744;9.176;2023-07-31T01:41:56;96840.47;;;12.64;74.17
80405;BME280;69733;48.744;9.176;2023-07-31T01:44:21;96834.53;;;12.62;74.35
80405;BME280;69733;48.744;9.176;2023-07-31T01:46:47;96832.94;;;12.61;74.39
80405;BME280;69733;48.744;9.176;2023-07-31T01:49:12;96825.38;;;12.58;74.76
80405;BME280;69733;48.744;9.176;2023-07-31T01:51:38;96826.47;;;12.57;74.66
80405;BME280;69733;48.744;9.176;2023-07-31T01:54:03;96837.38;;;12.55;74.95
80405;BME280;69733;48.744;9.176;2023-07-31T01:56:28;96827.97;;;12.53;74.72
80405;BME280;69733;48.744;9.176;2023-07-31T01:58:54;96829.28;;;12.50;74.59
80405;BME280;69733;48.744;9.176;2023-07-31T02:01:19;96819.88;;;12.47;74.98
80405;BME280;69733;48.744;9.176;2023-07-31T02:03:45;96827.31;;;12.45;74.87
80405;BME280;69733;48.744;9.176;2023-07-31T02:06:10;96813.38;;;12.43;74.93
80405;BME280;69733;48.744;9.176;2023-07-31T02:08:35;96815.50;;;12.41;75.18
80405;BME280;69733;48.744;9.176;2023-07-31T02:11:01;96817.63;;;12.39;75.26
80405;BME280;69733;48.744;9.176;2023-07-31T02:13:26;96813.53;;;12.37;75.28
80405;BME280;69733;48.744;9.176;2023-07-31T02:15:52;96806.34;;;12.37;75.21
80405;BME280;69733;48.744;9.176;2023-07-31T02:18:17;96802.06;;;12.36;75.52
80405;BME280;69733;48.744;9.176;2023-07-31T02:20:42;96801.28;;;12.36;75.32
80405;BME280;69733;48.744;9.176;2023-07-31T02:23:08;96796.72;;;12.36;75.63
80405;BME280;69733;48.744;9.176;2023-07-31T02:25:33;96799.16;;;12.38;75.28
80405;BME280;69733;48.744;9.176;2023-07-31T02:27:58;96791.72;;;12.40;75.20
80405;BME280;69733;48.744;9.176;2023-07-31T02:30:24;96789.84;;;12.40;75.22
80405;BME280;69733;48.744;9.176;2023-07-31T02:32:49;96783.47;;;12.41;75.39
80405;BME280;69733;48.744;9.176;2023-07-31T02:35:15;96788.81;;;12.41;75.46
80405;BME280;69733;48.744;9.176;2023-07-31T02:37:41;96786.38;;;12.40;75.56
80405;BME280;69733;48.744;9.176;2023-07-31T02:40:06;96789.03;;;12.40;75.56
80405;BME280;69733;48.744;9.176;2023-07-31T02:42:32;96787.44;;;12.39;75.64
80405;BME280;69733;48.744;9.176;2023-07-31T02:44:57;96793.00;;;12.37;75.82
80405;BME280;69733;48.744;9.176;2023-07-31T02:47:22;96785.47;;;12.34;75.89
80405;BME280;69733;48.744;9.176;2023-07-31T02:49:48;96782.25;;;12.32;75.81
80405;BME280;69733;48.744;9.176;2023-07-31T02:52:13;96780.84;;;12.30;76.10
80405;BME280;69733;48.744;9.176;2023-07-31T02:54:38;96776.81;;;12.27;75.91
80405;BME280;69733;48.744;9.176;2023-07-31T02:57:04;96783.19;;;12.26;76.08
80405;BME280;69733;48.744;9.176;2023-07-31T02:59:29;96775.44;;;12.25;76.14
80405;BME280;69733;48.744;9.176;2023-07-31T03:01:55;96765.50;;;12.20;76.22
80405;BME280;69733;48.744;9.176;2023-07-31T03:04:20;96760.97;;;12.21;76.59
80405;BME280;69733;48.744;9.176;2023-07-31T03:06:45;96763.31;;;12.17;76.44
80405;BME280;69733;48.744;9.176;2023-07-31T03:09:11;96764.34;;;12.16;76.68
80405;BME280;69733;48.744;9.176;2023-07-31T03:11:36;96769.13;;;12.14;76.56
80405;BME280;69733;48.744;9.176;2023-07-31T03:14:01;96763.44;;;12.11;76.70
80405;BME280;69733;48.744;9.176;2023-07-31T03:16:27;96767.16;;;12.10;76.77
80405;BME280;69733;48.744;9.176;2023-07-31T03:18:52;96767.38;;;12.08;76.72
80405;BME280;69733;48.744;9.176;2023-07-31T03:21:17;96771.94;;;12.08;76.83
80405;BME280;69733;48.744;9.176;2023-07-31T03:23:43;96767.38;;;12.08;76.73
80405;BME280;69733;48.744;9.176;2023-07-31T03:26:08;96772.72;;;12.08;76.86
80405;BME280;69733;48.744;9.176;2023-07-31T03:28:34;96774.34;;;12.09;76.82
80405;BME280;69733;48.744;9.176;2023-07-31T03:30:59;96768.78;;;12.11;76.55
80405;BME280;69733;48.744;9.176;2023-07-31T03:33:25;96768.53;;;12.12;76.62
80405;BME280;69733;48.744;9.176;2023-07-31T03:35:50;96764.25;;;12.11;76.73
80405;BME280;69733;48.744;9.176;2023-07-31T03:38:16;96766.94;;;12.11;76.77
80405;BME280;69733;48.744;9.176;2023-07-31T03:40:41;96765.31;;;12.10;76.77
80405;BME280;69733;48.744;9.176;2023-07-31T03:43:06;96778.88;;;12.09;76.90
80405;BME280;69733;48.744;9.176;2023-07-31T03:45:32;96775.38;;;12.08;77.02
80405;BME280;69733;48.744;9.176;2023-07-31T03:47:57;96779.34;;;12.06;76.92
80405;BME280;69733;48.744;9.176;2023-07-31T03:50:23;96786.31;;;12.07;77.04
80405;BME280;69733;48.744;9.176;2023-07-31T03:52:50;96778.06;;;12.08;76.97
80405;BME280;69733;48.744;9.176;2023-07-31T03:55:15;96780.50;;;12.10;77.04
80405;BME280;69733;48.744;9.176;2023-07-31T03:57:40;96780.81;;;12.13;76.67
80405;BME280;69733;48.744;9.176;2023-07-31T04:00:06;96778.72;;;12.15;76.89
80405;BME280;69733;48.744;9.176;2023-07-31T04:02:32;96779.06;;;12.19;76.98
80405;BME280;69733;48.744;9.176;2023-07-31T04:04:57;96776.50;;;12.24;77.07
80405;BME280;69733;48.744;9.176;2023-07-31T04:07:22;96779.00;;;12.30;76.78
80405;BME280;69733;48.744;9.176;2023-07-31T04:09:48;96784.78;;;12.39;76.83
80405;BME280;69733;48.744;9.176;2023-07-31T04:12:13;96779.03;;;12.47;76.67
80405;BME280;69733;48.744;9.176;2023-07-31T04:14:38;96772.50;;;12.55;76.52
80405;BME280;69733;48.744;9.176;2023-07-31T04:17:04;96766.75;;;12.63;76.76
80405;BME280;69733;48.744;9.176;2023-07-31T04:19:29;96765.56;;;12.70;76.36
80405;BME280;69733;48.744;9.176;2023-07-31T04:21:54;96763.53;;;12.77;76.29
80405;BME280;69733;48.744;9.176;2023-07-31T04:24:20;96766.03;;;12.84;76.44
80405;BME280;69733;48.744;9.176;2023-07-31T04:26:50;96756.22;;;12.89;76.45
80405;BME280;69733;48.744;9.176;2023-07-31T04:29:15;96751.78;;;12.95;76.43
80405;BME280;69733;48.744;9.176;2023-07-31T04:31:41;96752.66;;;13.01;76.35
80405;BME280;69733;48.744;9.176;2023-07-31T04:34:06;96756.78;;;13.08;76.45
80405;BME280;69733;48.744;9.176;2023-07-31T04:36:33;96755.38;;;13.17;76.77
80405;BME280;69733;48.744;9.176;2023-07-31T04:38:59;96762.16;;;13.25;75.93
80405;BME280;69733;48.744;9.176;2023-07-31T04:41:27;96762.78;;;13.32;76.06
80405;BME280;69733;48.744;9.176;2023-07-31T04:43:53;96766.09;;;13.39;76.26
80405;BME280;69733;48.744;9.176;2023-07-31T04:46:18;96765.91;;;13.45;76.27
80405;BME280;69733;48.744;9.176;2023-07-31T04:48:43;96771.41;;;13.56;76.23
80405;BME280;69733;48.744;9.176;2023-07-31T04:51:09;96757.59;;;13.64;76.35
80405;BME280;69733;48.744;9.176;2023-07-31T04:53:35;96762.50;;;13.72;76.29
80405;BME280;69733;48.744;9.176;2023-07-31T04:56:00;96756.72;;;13.80;76.25
80405;BME280;69733;48.744;9.176;2023-07-31T04:58:26;96754.66;;;13.87;76.17
80405;BME280;69733;48.744;9.176;2023-07-31T05:00:51;96759.59;;;13.95;75.99
80405;BME280;69733;48.744;9.176;2023-07-31T05:03:17;96762.28;;;14.00;76.10
80405;BME280;69733;48.744;9.176;2023-07-31T05:05:42;96758.88;;;14.05;76.10
80405;BME280;69733;48.744;9.176;2023-07-31T05:08:08;96756.00;;;14.11;76.03
80405;BME280;69733;48.744;9.176;2023-07-31T05:10:36;96755.78;;;14.18;76.19
80405;BME280;69733;48.744;9.176;2023-07-31T05:13:01;96757.78;;;14.27;75.90
80405;BME280;69733;48.744;9.176;2023-07-31T05:15:27;96760.03;;;14.35;75.87
80405;BME280;69733;48.744;9.176;2023-07-31T05:17:52;96752.66;;;14.48;75.58
80405;BME280;69733;48.744;9.176;2023-07-31T05:20:17;96746.88;;;14.61;75.53
80405;BME280;69733;48.744;9.176;2023-07-31T05:22:43;96755.34;;;14.79;75.55
80405;BME280;69733;48.744;9.176;2023-07-31T05:25:08;96761.00;;;14.88;75.45
80405;BME280;69733;48.744;9.176;2023-07-31T05:27:33;96758.94;;;14.95;75.35
80405;BME280;69733;48.744;9.176;2023-07-31T05:29:59;96752.56;;;15.01;75.52
80405;BME280;69733;48.744;9.176;2023-07-31T05:32:24;96760.41;;;15.13;75.57
80405;BME280;69733;48.744;9.176;2023-07-31T05:34:53;96754.44;;;15.42;74.81
80405;BME280;69733;48.744;9.176;2023-07-31T05:37:19;96749.53;;;15.81;74.05
80405;BME280;69733;48.744;9.176;2023-07-31T05:39:44;96745.09;;;16.17;73.38
80405;BME280;69733;48.744;9.176;2023-07-31T05:42:10;96751.59;;;16.52;73.18
80405;BME280;69733;48.744;9.176;2023-07-31T05:44:35;96751.94;;;16.75;72.75
80405;BME280;69733;48.744;9.176;2023-07-31T05:47:00;96751.66;;;17.02;72.36
80405;BME280;69733;48.744;9.176;2023-07-31T05:49:26;96744.06;;;17.50;71.54
80405;BME280;69733;48.744;9.176;2023-07-31T05:51:51;96744.09;;;18.14;70.66
80405;BME280;69733;48.744;9.176;2023-07-31T05:54:16;96750.47;;;18.72;69.52
80405;BME280;69733;48.744;9.176;2023-07-31T05:56:42;96739.59;;;18.87;69.76
80405;BME280;69733;48.744;9.176;2023-07-31T05:59:09;96734.66;;;18.94;70.28
80405;BME280;69733;48.744;9.176;2023-07-31T06:01:35;96733.91;;;19.17;69.98
80405;BME280;69733;48.744;9.176;2023-07-31T06:04:00;96733.81;;;19.56;69.29
80405;BME280;69733;48.744;9.176;2023-07-31T06:06:27;96731.81;;;20.09;68.34
80405;BME280;69733;48.744;9.176;2023-07-31T06:08:53;96727.78;;;20.68;67.45
80405;BME280;69733;48.744;9.176;2023-07-31T06:11:20;96734.38;;;21.26;66.52
80405;BME280;69733;48.744;9.176;2023-07-31T06:13:45;96738.25;;;21.53;66.12
80405;BME280;69733;48.744;9.176;2023-07-31T06:16:13;96727.00;;;21.46;66.90
80405;BME280;69733;48.744;9.176;2023-07-31T06:18:38;96733.97;;;21.19;67.58
80405;BME280;69733;48.744;9.176;2023-07-31T06:21:03;96727.63;;;21.10;67.96
80405;BME280;69733;48.744;9.176;2023-07-31T06:23:29;96731.41;;;21.42;67.57
80405;BME280;69733;48.744;9.176;2023-07-31T06:25:54;96726.03;;;21.96;66.14
80405;BME280;69733;48.744;9.176;2023-07-31T06:28:19;96727.19;;;22.31;65.56
80405;BME280;69733;48.744;9.176;2023-07-31T06:30:45;96730.19;;;22.29;65.66
80405;BME280;69733;48.744;9.176;2023-07-31T06:33:10;96735.53;;;22.70;64.34
80405;BME280;69733;48.744;9.176;2023-07-31T06:35:35;96733.25;;;23.30;63.11
80405;BME280;69733;48.744;9.176;2023-07-31T06:38:00;96732.78;;;23.37;62.93
80405;BME280;69733;48.744;9.176;2023-07-31T06:40:27;96736.69;;;23.22;63.27
80405;BME280;69733;48.744;9.176;2023-07-31T06:42:52;96740.28;;;22.87;63.69
80405;BME280;69733;48.744;9.176;2023-07-31T06:45:18;96734.34;;;22.63;64.02
80405;BME280;69733;48.744;9.176;2023-07-31T06:47:43;96731.28;;;22.64;63.67
80405;BME280;69733;48.744;9.176;2023-07-31T06:50:09;96731.28;;;22.78;62.51
80405;BME280;69733;48.744;9.176;2023-07-31T06:52:34;96738.78;;;23.03;61.71
80405;BME280;69733;48.744;9.176;2023-07-31T06:55:09;96739.13;;;23.55;60.11
80405;BME280;69733;48.744;9.176;2023-07-31T06:57:41;96735.00;;;24.05;59.33
80405;BME280;69733;48.744;9.176;2023-07-31T07:00:07;96736.22;;;24.30;58.41
80405;BME280;69733;48.744;9.176;2023-07-31T07:02:32;96738.44;;;24.28;57.82
80405;BME280;69733;48.744;9.176;2023-07-31T07:04:58;96742.28;;;24.27;57.16
80405;BME280;69733;48.744;9.176;2023-07-31T07:07:23;96736.41;;;24.51;56.72
80405;BME280;69733;48.744;9.176;2023-07-31T07:09:48;96737.38;;;24.98;55.34
80405;BME280;69733;48.744;9.176;2023-07-31T07:12:14;96739.78;;;24.99;55.24
80405;BME280;69733;48.744;9.176;2023-07-31T07:14:39;96731.91;;;24.98;54.11
80405;BME280;69733;48.744;9.176;2023-07-31T07:17:04;96728.56;;;24.75;53.72
80405;BME280;69733;48.744;9.176;2023-07-31T07:19:30;96729.69;;;24.57;53.69
80405;BME280;69733;48.744;9.176;2023-07-31T07:21:55;96726.78;;;24.53;52.83
80405;BME280;69733;48.744;9.176;2023-07-31T07:24:21;96732.41;;;24.57;52.24
80405;BME280;69733;48.744;9.176;2023-07-31T07:26:46;96724.44;;;24.86;51.20
80405;BME280;69733;48.744;9.176;2023-07-31T07:29:11;96720.88;;;25.75;49.64
80405;BME280;69733;48.744;9.176;2023-07-31T07:31:37;96719.47;;;26.28;48.08
80405;BME280;69733;48.744;9.176;2023-07-31T07:34:02;96720.41;;;26.02;48.52
80405;BME280;69733;48.744;9.176;2023-07-31T07:36:28;96718.56;;;25.86;48.11
80405;BME280;69733;48.744;9.176;2023-07-31T07:38:53;96721.25;;;25.56;47.88
80405;BME280;69733;48.744;9.176;2023-07-31T07:41:18;96727.25;;;25.15;47.87
80405;BME280;69733;48.744;9.176;2023-07-31T07:43:44;96718.19;;;24.86;47.55
80405;BME280;69733;48.744;9.176;2023-07-31T07:46:09;96730.47;;;24.74;47.34
80405;BME280;69733;48.744;9.176;2023-07-31T07:48:34;96717.03;;;24.78;46.57
80405;BME280;69733;48.744;9.176;2023-07-31T07:50:59;96718.63;;;24.70;46.07
80405;BME280;69733;48.744;9.176;2023-07-31T07:53:25;96721.94;;;25.19;45.12
80405;BME280;69733;48.744;9.176;2023-07-31T07:55:50;96716.50;;;26.12;44.26
80405;BME280;69733;48.744;9.176;2023-07-31T07:58:15;96714.47;;;27.12;43.19
80405;BME280;69733;48.744;9.176;2023-07-31T08:00:41;96712.31;;;27.51;42.74
80405;BME280;69733;48.744;9.176;2023-07-31T08:03:06;96718.56;;;27.06;43.55
80405;BME280;69733;48.744;9.176;2023-07-31T08:05:31;96708.44;;;26.86;42.72
80405;BME280;69733;48.744;9.176;2023-07-31T08:07:59;96702.44;;;26.72;42.79
80405;BME280;69733;48.744;9.176;2023-07-31T08:10:24;96699.41;;;26.53;42.42
80405;BME280;69733;48.744;9.176;2023-07-31T08:12:50;96696.03;;;26.68;42.16
80405;BME280;69733;48.744;9.176;2023-07-31T08:15:15;96696.22;;;27.04;41.28
80405;BME280;69733;48.744;9.176;2023-07-31T08:17:40;96705.59;;;27.60;40.98
80405;BME280;69733;48.744;9.176;2023-07-31T08:20:06;96700.50;;;27.95;40.09
80405;BME280;69733;48.744;9.176;2023-07-31T08:22:32;96697.69;;;28.16;39.59
80405;BME280;69733;48.744;9.176;2023-07-31T08:24:57;96682.66;;;28.50;38.95
80405;BME280;69733;48.744;9.176;2023-07-31T08:27:23;96684.19;;;29.03;38.12
80405;BME280;69733;48.744;9.176;2023-07-31T08:29:48;96679.59;;;29.35;38.39
80405;BME280;69733;48.744;9.176;2023-07-31T08:32:13;96687.00;;;29.19;38.26
80405;BME280;69733;48.744;9.176;2023-07-31T08:34:38;96690.78;;;29.14;38.32
80405;BME280;69733;48.744;9.176;2023-07-31T08:37:04;96682.97;;;29.00;38.12
80405;BME280;69733;48.744;9.176;2023-07-31T08:39:29;96681.94;;;28.65;38.16
80405;BME280;69733;48.744;9.176;2023-07-31T08:41:58;96690.63;;;28.67;38.17
80405;BME280;69733;48.744;9.176;2023-07-31T08:44:25;96680.75;;;28.38;38.38
80405;BME280;69733;48.744;9.176;2023-07-31T08:46:50;96664.47;;;28.30;38.45
80405;BME280;69733;48.744;9.176;2023-07-31T08:49:17;96667.53;;;27.92;38.52
80405;BME280;69733;48.744;9.176;2023-07-31T08:51:43;96660.63;;;27.58;38.69
80405;BME280;69733;48.744;9.176;2023-07-31T08:54:10;96673.84;;;27.23;38.85
80405;BME280;69733;48.744;9.176;2023-07-31T08:56:36;96672.19;;;26.98;38.94
80405;BME280;69733;48.744;9.176;2023-07-31T08:59:03;96673.25;;;27.17;38.86
80405;BME280;69733;48.744;9.176;2023-07-31T09:01:30;96676.56;;;27.56;37.86
80405;BME280;69733;48.744;9.176;2023-07-31T09:03:59;96668.47;;;27.72;38.00
80405;BME280;69733;48.744;9.176;2023-07-31T09:06:27;96672.13;;;27.76;37.73
80405;BME280;69733;48.744;9.176;2023-07-31T09:08:53;96657.47;;;28.44;37.17
80405;BME280;69733;48.744;9.176;2023-07-31T09:11:21;96644.78;;;29.23;36.69
80405;BME280;69733;48.744;9.176;2023-07-31T09:13:46;96650.41;;;29.42;36.25
80405;BME280;69733;48.744;9.176;2023-07-31T09:16:13;96646.09;;;29.88;35.59
80405;BME280;69733;48.744;9.176;2023-07-31T09:18:56;96652.47;;;29.92;35.58
80405;BME280;69733;48.744;9.176;2023-07-31T09:21:23;96658.06;;;30.15;35.29
80405;BME280;69733;48.744;9.176;2023-07-31T09:23:49;96655.69;;;30.48;35.37
80405;BME280;69733;48.744;9.176;2023-07-31T09:26:36;96659.53;;;30.63;34.82
80405;BME280;69733;48.744;9.176;2023-07-31T09:29:06;96652.53;;;30.46;34.83
80405;BME280;69733;48.744;9.176;2023-07-31T09:34:06;96654.25;;;29.85;34.88
80405;BME280;69733;48.744;9.176;2023-07-31T09:36:32;96653.25;;;29.77;35.48
80405;BME280;69733;48.744;9.176;2023-07-31T09:39:03;96652.00;;;29.28;35.26
80405;BME280;69733;48.744;9.176;2023-07-31T09:41:55;96644.72;;;28.64;35.65
80405;BME280;69733;48.744;9.176;2023-07-31T09:44:40;96638.03;;;28.09;36.22
80405;BME280;69733;48.744;9.176;2023-07-31T09:47:06;96640.78;;;27.73;36.43
80405;BME280;69733;48.744;9.176;2023-07-31T09:49:31;96625.16;;;27.49;36.14
80405;BME280;69733;48.744;9.176;2023-07-31T09:51:56;96617.38;;;27.39;36.50
80405;BME280;69733;48.744;9.176;2023-07-31T09:54:22;96613.19;;;27.30;37.04
80405;BME280;69733;48.744;9.176;2023-07-31T09:56:48;96601.00;;;27.39;36.45
80405;BME280;69733;48.744;9.176;2023-07-31T09:59:20;96606.81;;;27.98;36.34
80405;BME280;69733;48.744;9.176;2023-07-31T10:01:46;96603.44;;;28.69;35.61
80405;BME280;69733;48.744;9.176;2023-07-31T10:04:12;96604.75;;;29.19;35.87
80405;BME280;69733;48.744;9.176;2023-07-31T10:06:40;96599.97;;;29.15;35.72
80405;BME280;69733;48.744;9.176;2023-07-31T10:09:11;96597.59;;;29.14;35.24
80405;BME280;69733;48.744;9.176;2023-07-31T10:11:47;96587.28;;;28.80;35.32
80405;BME280;69733;48.744;9.176;2023-07-31T10:14:18;96585.06;;;28.85;35.37
80405;BME280;69733;48.744;9.176;2023-07-31T10:16:45;96589.59;;;28.93;35.33
80405;BME280;69733;48.744;9.176;2023-07-31T10:19:10;96590.88;;;29.27;34.38
80405;BME280;69733;48.744;9.176;2023-07-31T10:21:36;96581.94;;;29.30;34.56
80405;BME280;69733;48.744;9.176;2023-07-31T10:24:04;96578.69;;;29.40;34.06
80405;BME280;69733;48.744;9.176;2023-07-31T10:26:31;96573.81;;;29.34;33.87
80405;BME280;69733;48.744;9.176;2023-07-31T10:28:57;96583.34;;;29.08;34.14
80405;BME280;69733;48.744;9.176;2023-07-31T10:31:23;96578.81;;;28.85;34.46
80405;BME280;69733;48.744;9.176;2023-07-31T10:33:50;96567.38;;;28.67;34.58
80405;BME280;69733;48.744;9.176;2023-07-31T10:36:20;96574.84;;;28.54;35.00
80405;BME280;69733;48.744;9.176;2023-07-31T10:38:48;96557.59;;;28.54;34.88
80405;BME280;69733;48.744;9.176;2023-07-31T10:41:14;96555.19;;;28.52;34.92
80405;BME280;69733;48.744;9.176;2023-07-31T10:43:39;96567.22;;;28.48;35.25
80405;BME280;69733;48.744;9.176;2023-07-31T10:46:11;96561.91;;;28.27;35.64
80405;BME280;69733;48.744;9.176;2023-07-31T10:48:39;96557.81;;;27.81;35.98
80405;BME280;69733;48.744;9.176;2023-07-31T10:51:08;96568.19;;;27.76;35.89
80405;BME280;69733;48.744;9.176;2023-07-31T10:53:35;96571.25;;;27.74;35.66
80405;BME280;69733;48.744;9.176;2023-07-31T10:56:01;96565.13;;;27.77;35.45
80405;BME280;69733;48.744;9.176;2023-07-31T10:58:27;96567.19;;;27.68;35.75
80405;BME280;69733;48.744;9.176;2023-07-31T11:00:57;96568.81;;;27.45;35.69
80405;BME280;69733;48.744;9.176;2023-07-31T11:03:40;96558.97;;;27.44;35.79
80405;BME280;69733;48.744;9.176;2023-07-31T11:06:07;96555.56;;;27.35;35.83
80405;BME280;69733;48.744;9.176;2023-07-31T11:08:35;96556.47;;;27.27;36.10
80405;BME280;69733;48.744;9.176;2023-07-31T11:13:29;96557.50;;;27.10;36.32
80405;BME280;69733;48.744;9.176;2023-07-31T11:15:54;96554.19;;;26.92;36.57
80405;BME280;69733;48.744;9.176;2023-07-31T11:18:20;96560.84;;;26.83;36.29
80405;BME280;69733;48.744;9.176;2023-07-31T11:20:45;96555.44;;;26.62;36.33
80405;BME280;69733;48.744;9.176;2023-07-31T11:23:11;96550.81;;;26.42;36.54
80405;BME280;69733;48.744;9.176;2023-07-31T11:25:38;96561.94;;;26.37;36.60
80405;BME280;69733;48.744;9.176;2023-07-31T11:28:15;96554.16;;;26.27;36.68
80405;BME280;69733;48.744;9.176;2023-07-31T11:30:42;96550.91;;;26.33;36.91
80405;BME280;69733;48.744;9.176;2023-07-31T11:33:09;96550.88;;;26.21;37.05
80405;BME280;69733;48.744;9.176;2023-07-31T11:38:11;96553.81;;;25.87;37.74
80405;BME280;69733;48.744;9.176;2023-07-31T11:40:43;96550.81;;;25.80;37.67
80405;BME280;69733;48.744;9.176;2023-07-31T11:43:09;96557.28;;;25.96;37.63
80405;BME280;69733;48.744;9.176;2023-07-31T11:45:36;96553.97;;;26.11;37.84
80405;BME280;69733;48.744;9.176;2023-07-31T11:48:05;96548.25;;;26.25;37.75
80405;BME280;69733;48.744;9.176;2023-07-31T11:50:33;96536.25;;;26.38;37.68
80405;BME280;69733;48.744;9.176;2023-07-31T11:53:00;96530.72;;;26.46;38.00
80405;BME280;69733;48.744;9.176;2023-07-31T11:55:28;96522.78;;;26.53;37.88
80405;BME280;69733;48.744;9.176;2023-07-31T11:57:55;96527.63;;;26.48;38.12
80405;BME280;69733;48.744;9.176;2023-07-31T12:00:22;96522.72;;;26.41;38.14
80405;BME280;69733;48.744;9.176;2023-07-31T12:02:48;96509.38;;;26.28;38.20
80405;BME280;69733;48.744;9.176;2023-07-31T12:05:15;96503.69;;;26.20;38.02
80405;BME280;69733;48.744;9.176;2023-07-31T12:10:25;96505.97;;;26.31;38.39
80405;BME280;69733;48.744;9.176;2023-07-31T12:13:08;96499.47;;;26.23;38.70
80405;BME280;69733;48.744;9.176;2023-07-31T12:15:44;96496.41;;;26.25;38.29
80405;BME280;69733;48.744;9.176;2023-07-31T12:18:13;96502.19;;;26.23;38.74
80405;BME280;69733;48.744;9.176;2023-07-31T12:20:47;96491.09;;;26.07;39.09
80405;BME280;69733;48.744;9.176;2023-07-31T12:23:17;96500.44;;;25.86;39.20
80405;BME280;69733;48.744;9.176;2023-07-31T12:25:43;96501.06;;;25.83;39.41
80405;BME280;69733;48.744;9.176;2023-07-31T12:28:08;96495.44;;;25.88;38.92
80405;BME280;69733;48.744;9.176;2023-07-31T12:30:38;96492.66;;;25.96;39.12
80405;BME280;69733;48.744;9.176;2023-07-31T12:35:35;96491.91;;;25.87;39.58
80405;BME280;69733;48.744;9.176;2023-07-31T12:38:01;96476.88;;;25.81;39.60
80405;BME280;69733;48.744;9.176;2023-07-31T12:40:27;96480.16;;;25.74;39.71
80405;BME280;69733;48.744;9.176;2023-07-31T12:42:52;96476.38;;;25.67;39.95
80405;BME280;69733;48.744;9.176;2023-07-31T12:45:18;96468.13;;;25.55;40.04
80405;BME280;69733;48.744;9.176;2023-07-31T12:47:43;96467.53;;;25.41;39.80
80405;BME280;69733;48.744;9.176;2023-07-31T12:50:09;96463.28;;;25.31;40.25
80405;BME280;69733;48.744;9.176;2023-07-31T12:52:34;96466.53;;;25.24;40.50
80405;BME280;69733;48.744;9.176;2023-07-31T12:54:59;96460.81;;;25.17;40.90
80405;BME280;69733;48.744;9.176;2023-07-31T12:57:25;96455.41;;;25.09;40.45
80405;BME280;69733;48.744;9.176;2023-07-31T12:59:50;96449.69;;;25.02;41.00
80405;BME280;69733;48.744;9.176;2023-07-31T13:02:15;96443.44;;;25.01;41.05
80405;BME280;69733;48.744;9.176;2023-07-31T13:04:41;96440.09;;;25.04;40.95
80405;BME280;69733;48.744;9.176;2023-07-31T13:07:06;96430.44;;;25.07;41.30
80405;BME280;69733;48.744;9.176;2023-07-31T13:09:31;96430.84;;;25.17;41.06
80405;BME280;69733;48.744;9.176;2023-07-31T13:11:57;96433.19;;;25.27;41.50